Time;durP1;ratioP1;P1;durP2;ratioP2;P2;SDS_P1;SDS_P2;PMS_P1;PMS_P2;Temp;Humidity;BMP_temperature;BMP_pressure;BME280_temperature;BME280_humidity;BME280_pressure;Samples;Min_cycle;Max_cycle;Signal;HPM_P1;HPM_P2
2023/08/02 00:00:35;;;;;;;3.10;2.63;;;;;;;;;;4997694;28;20030;-45
2023/08/02 00:03:01;;;;;;;9.80;2.80;;;;;;;;;;4997597;28;20038;-45
2023/08/02 00:05:26;;;;;;;4.55;2.90;;;;;;;;;;4997206;28;20450;-45
2023/08/02 00:07:51;;;;;;;3.60;2.75;;;;;;;;;;4993623;28;20038;-46
2023/08/02 00:10:17;;;;;;;3.15;2.47;;;;;;;;;;4998248;28;20030;-46
2023/08/02 00:12:42;;;;;;;2.85;2.58;;;;;;;;;;4996949;28;20508;-47
2023/08/02 00:15:08;;;;;;;3.08;2.30;;;;;;;;;;4997218;28;20149;-46
2023/08/02 00:17:34;;;;;;;2.75;2.53;;;;;;;;;;4995415;28;20038;-45
2023/08/02 00:19:59;;;;;;;3.67;2.58;;;;;;;;;;4979406;28;20038;-46
2023/08/02 00:22:24;;;;;;;3.80;2.60;;;;;;;;;;4996171;28;20035;-44
2023/08/02 00:24:50;;;;;;;9.93;2.60;;;;;;;;;;4997293;28;20022;-48
2023/08/02 00:27:15;;;;;;;2.88;2.40;;;;;;;;;;4995793;28;20032;-47
2023/08/02 00:29:41;;;;;;;3.20;2.67;;;;;;;;;;4993167;28;20476;-46
2023/08/02 00:32:06;;;;;;;5.10;3.10;;;;;;;;;;4988535;28;20381;-44
2023/08/02 00:34:32;;;;;;;5.57;2.42;;;;;;;;;;4957268;28;20429;-46
2023/08/02 00:36:57;;;;;;;3.55;3.22;;;;;;;;;;4976852;28;20113;-44
2023/08/02 00:39:23;;;;;;;3.38;2.70;;;;;;;;;;4996131;28;20126;-49
2023/08/02 00:41:48;;;;;;;3.65;2.60;;;;;;;;;;4995356;28;20022;-47
2023/08/02 00:44:14;;;;;;;2.58;2.38;;;;;;;;;;4995116;28;20492;-46
2023/08/02 00:46:39;;;;;;;4.10;2.70;;;;;;;;;;4997691;28;20376;-46
2023/08/02 00:49:05;;;;;;;3.78;2.60;;;;;;;;;;4995386;28;20133;-52
2023/08/02 00:51:33;;;;;;;2.33;2.15;;;;;;;;;;4995972;28;20034;-46
2023/08/02 00:54:02;;;;;;;6.65;2.90;;;;;;;;;;4994916;28;20088;-48
2023/08/02 00:56:30;;;;;;;7.00;3.22;;;;;;;;;;4997577;28;20033;-46
2023/08/02 00:58:55;;;;;;;4.05;2.88;;;;;;;;;;4972156;28;20468;-49
2023/08/02 01:01:21;;;;;;;8.93;2.80;;;;;;;;;;4992255;28;20038;-46
2023/08/02 01:03:46;;;;;;;11.73;3.20;;;;;;;;;;4978134;28;20042;-50
2023/08/02 01:06:25;;;;;;;4.60;2.58;;;;;;;;;;4994835;28;20138;-50
2023/08/02 01:09:20;;;;;;;13.23;4.07;;;;;;;;;;4995632;28;20034;-49
2023/08/02 01:12:04;;;;;;;13.77;3.65;;;;;;;;;;4987328;28;20047;-44
2023/08/02 01:14:32;;;;;;;4.22;2.47;;;;;;;;;;4988136;28;20058;-50
2023/08/02 01:16:58;;;;;;;7.18;2.42;;;;;;;;;;4997168;28;20026;-49
2023/08/02 01:19:24;;;;;;;4.00;2.90;;;;;;;;;;4994997;28;20034;-51
2023/08/02 01:21:50;;;;;;;3.45;2.50;;;;;;;;;;4996220;28;20033;-45
2023/08/02 01:24:16;;;;;;;2.80;2.60;;;;;;;;;;4995221;28;20057;-49
2023/08/02 01:26:48;;;;;;;2.63;2.25;;;;;;;;;;4990011;28;20030;-49
2023/08/02 01:29:18;;;;;;;3.30;2.90;;;;;;;;;;4994454;28;20044;-47
2023/08/02 01:31:44;;;;;;;4.25;3.15;;;;;;;;;;4985117;28;20030;-50
2023/08/02 01:34:11;;;;;;;2.92;2.67;;;;;;;;;;4988421;28;20074;-44
2023/08/02 01:36:37;;;;;;;4.07;2.60;;;;;;;;;;4987786;28;20081;-46
2023/08/02 01:39:02;;;;;;;3.20;2.55;;;;;;;;;;4989934;28;20035;-46
2023/08/02 01:41:28;;;;;;;2.53;2.30;;;;;;;;;;5002995;28;20045;-46
2023/08/02 01:43:53;;;;;;;2.60;2.38;;;;;;;;;;4987013;28;20121;-45
2023/08/02 01:46:18;;;;;;;3.25;2.17;;;;;;;;;;4985012;28;20069;-44
2023/08/02 01:48:44;;;;;;;3.72;2.80;;;;;;;;;;4995483;28;20048;-48
2023/08/02 01:51:09;;;;;;;6.43;3.17;;;;;;;;;;4983729;28;20090;-45
2023/08/02 01:53:35;;;;;;;2.80;2.58;;;;;;;;;;4975910;28;20460;-48
2023/08/02 01:56:00;;;;;;;2.60;2.30;;;;;;;;;;4996547;28;20030;-44
2023/08/02 01:58:26;;;;;;;2.83;2.50;;;;;;;;;;4982927;28;20042;-44
2023/08/02 02:00:51;;;;;;;2.63;2.42;;;;;;;;;;4985847;28;20026;-50
2023/08/02 02:03:17;;;;;;;3.10;2.70;;;;;;;;;;4996556;28;20054;-44
2023/08/02 02:05:51;;;;;;;2.88;2.60;;;;;;;;;;4989691;28;20543;-45
2023/08/02 02:08:17;;;;;;;2.92;2.47;;;;;;;;;;4994203;28;20038;-46
2023/08/02 02:10:50;;;;;;;5.47;2.63;;;;;;;;;;4995377;28;20038;-47
2023/08/02 02:13:20;;;;;;;3.78;2.65;;;;;;;;;;4979390;28;20043;-45
2023/08/02 02:15:45;;;;;;;3.88;2.28;;;;;;;;;;4985978;28;20062;-46
2023/08/02 02:18:11;;;;;;;7.63;2.50;;;;;;;;;;4988318;28;20051;-47
2023/08/02 02:20:36;;;;;;;4.07;2.88;;;;;;;;;;4985905;28;20022;-45
2023/08/02 02:23:02;;;;;;;4.65;2.40;;;;;;;;;;4987116;28;20049;-46
2023/08/02 02:25:27;;;;;;;2.85;2.53;;;;;;;;;;4986809;28;20421;-48
2023/08/02 02:27:53;;;;;;;4.60;2.47;;;;;;;;;;4994057;28;20066;-46
2023/08/02 02:30:18;;;;;;;4.53;2.47;;;;;;;;;;4994878;28;20034;-47
2023/08/02 02:32:43;;;;;;;3.13;2.88;;;;;;;;;;4994589;28;20050;-45
2023/08/02 02:35:12;;;;;;;2.60;2.40;;;;;;;;;;4996388;28;20033;-43
2023/08/02 02:37:38;;;;;;;5.63;2.25;;;;;;;;;;4995968;28;20045;-45
2023/08/02 02:40:05;;;;;;;3.00;2.63;;;;;;;;;;4976661;28;20584;-49
2023/08/02 02:42:30;;;;;;;2.80;2.38;;;;;;;;;;4988414;28;20043;-46
2023/08/02 02:44:56;;;;;;;7.03;2.70;;;;;;;;;;4999162;28;20041;-47
2023/08/02 02:47:21;;;;;;;2.75;2.55;;;;;;;;;;4999880;28;20030;-46
2023/08/02 02:49:46;;;;;;;4.32;2.30;;;;;;;;;;4996723;28;20034;-47
2023/08/02 02:52:12;;;;;;;5.57;3.20;;;;;;;;;;4998976;28;20023;-50
2023/08/02 02:54:38;;;;;;;2.40;2.17;;;;;;;;;;4999970;28;20044;-48
2023/08/02 02:57:03;;;;;;;3.03;2.20;;;;;;;;;;4999043;28;20591;-48
2023/08/02 02:59:29;;;;;;;3.10;2.55;;;;;;;;;;4981105;28;20084;-48
2023/08/02 03:01:54;;;;;;;5.97;3.05;;;;;;;;;;4991791;28;20030;-47
2023/08/02 03:04:19;;;;;;;4.35;2.78;;;;;;;;;;4993931;28;20050;-49
2023/08/02 03:06:45;;;;;;;6.20;2.58;;;;;;;;;;4997209;28;20081;-45
2023/08/02 03:09:10;;;;;;;4.47;2.67;;;;;;;;;;4997323;28;20540;-45
2023/08/02 03:11:36;;;;;;;9.82;2.83;;;;;;;;;;4998213;28;20385;-48
2023/08/02 03:14:01;;;;;;;3.75;2.88;;;;;;;;;;4997229;28;20461;-50
2023/08/02 03:16:26;;;;;;;4.38;2.70;;;;;;;;;;4997240;28;20552;-50
2023/08/02 03:18:54;;;;;;;4.68;2.70;;;;;;;;;;4989726;28;20535;-46
2023/08/02 03:21:20;;;;;;;3.08;2.55;;;;;;;;;;4993654;28;20086;-44
2023/08/02 03:23:45;;;;;;;2.90;2.40;;;;;;;;;;4986074;28;20613;-44
2023/08/02 03:26:11;;;;;;;5.28;3.30;;;;;;;;;;4988843;28;20031;-51
2023/08/02 03:28:36;;;;;;;2.95;2.67;;;;;;;;;;4997215;28;20053;-46
2023/08/02 03:31:02;;;;;;;4.53;2.70;;;;;;;;;;4980259;28;20969;-47
2023/08/02 03:33:27;;;;;;;2.63;2.42;;;;;;;;;;4997932;28;20050;-45
2023/08/02 03:35:52;;;;;;;3.25;2.97;;;;;;;;;;4994431;28;20497;-48
2023/08/02 03:38:18;;;;;;;4.68;3.00;;;;;;;;;;4989599;28;20044;-49
2023/08/02 03:40:43;;;;;;;5.38;3.35;;;;;;;;;;4997793;28;20041;-51
2023/08/02 03:43:09;;;;;;;3.53;3.00;;;;;;;;;;4979804;28;20039;-49
2023/08/02 03:45:34;;;;;;;4.03;2.83;;;;;;;;;;4997905;28;20045;-46
2023/08/02 03:48:00;;;;;;;3.22;2.70;;;;;;;;;;4997556;28;20038;-44
2023/08/02 03:50:26;;;;;;;4.63;2.70;;;;;;;;;;4997987;28;20479;-46
2023/08/02 03:52:52;;;;;;;3.67;2.60;;;;;;;;;;4994615;28;20444;-47
2023/08/02 03:55:18;;;;;;;2.95;2.67;;;;;;;;;;4993835;28;20046;-44
2023/08/02 03:57:43;;;;;;;2.67;2.47;;;;;;;;;;4995673;28;20042;-45
2023/08/02 04:00:09;;;;;;;5.78;2.55;;;;;;;;;;4997370;28;20435;-45
2023/08/02 04:02:34;;;;;;;4.70;3.08;;;;;;;;;;4984614;28;20397;-46
2023/08/02 04:05:00;;;;;;;3.45;2.42;;;;;;;;;;4987300;28;20472;-47
2023/08/02 04:07:25;;;;;;;3.55;2.78;;;;;;;;;;4994196;28;20500;-45
2023/08/02 04:09:51;;;;;;;4.10;2.85;;;;;;;;;;4985373;28;20413;-46
2023/08/02 04:12:17;;;;;;;2.67;2.47;;;;;;;;;;5012355;28;20042;-46
2023/08/02 04:14:43;;;;;;;4.05;2.85;;;;;;;;;;4991362;28;20080;-45
2023/08/02 04:17:09;;;;;;;3.47;2.90;;;;;;;;;;4991996;28;20448;-47
2023/08/02 04:19:34;;;;;;;3.17;2.67;;;;;;;;;;4990643;28;20041;-46
2023/08/02 04:22:00;;;;;;;5.40;2.60;;;;;;;;;;4987219;28;20058;-46
2023/08/02 04:24:25;;;;;;;3.30;3.00;;;;;;;;;;4993413;28;20057;-44
2023/08/02 04:26:51;;;;;;;3.92;2.83;;;;;;;;;;4983557;28;20084;-46
2023/08/02 04:29:16;;;;;;;6.22;3.13;;;;;;;;;;4983091;28;20444;-44
2023/08/02 04:31:41;;;;;;;7.70;3.45;;;;;;;;;;4995234;28;20031;-44
2023/08/02 04:34:07;;;;;;;6.18;2.80;;;;;;;;;;4978270;28;20719;-47
2023/08/02 04:36:32;;;;;;;5.93;2.63;;;;;;;;;;4977577;28;20445;-45
2023/08/02 04:38:59;;;;;;;3.53;2.70;;;;;;;;;;4993585;28;20109;-45
2023/08/02 04:41:24;;;;;;;4.68;2.85;;;;;;;;;;4995787;28;20034;-47
2023/08/02 04:43:50;;;;;;;7.03;3.05;;;;;;;;;;4984448;28;20169;-45
2023/08/02 04:46:15;;;;;;;4.70;2.67;;;;;;;;;;4994669;28;20034;-46
2023/08/02 04:48:40;;;;;;;5.35;2.92;;;;;;;;;;4983440;28;20037;-47
2023/08/02 04:51:10;;;;;;;5.35;3.20;;;;;;;;;;4997579;28;20037;-49
2023/08/02 04:53:36;;;;;;;3.03;2.72;;;;;;;;;;4995131;28;20064;-43
2023/08/02 04:56:01;;;;;;;6.15;3.05;;;;;;;;;;4987190;28;20552;-48
2023/08/02 04:58:26;;;;;;;5.75;2.70;;;;;;;;;;4996375;28;20160;-46
2023/08/02 05:00:52;;;;;;;9.52;3.72;;;;;;;;;;4996535;28;20113;-46
2023/08/02 05:03:17;;;;;;;7.03;3.53;;;;;;;;;;4996704;28;20042;-49
2023/08/02 05:05:43;;;;;;;7.63;2.88;;;;;;;;;;4996830;28;20481;-46
2023/08/02 05:08:08;;;;;;;6.53;2.92;;;;;;;;;;4995363;28;20042;-47
2023/08/02 05:10:37;;;;;;;5.05;3.30;;;;;;;;;;4996144;28;20407;-46
2023/08/02 05:13:05;;;;;;;5.07;3.17;;;;;;;;;;4988843;28;20476;-48
2023/08/02 05:15:35;;;;;;;10.93;3.60;;;;;;;;;;4978714;28;20058;-44
2023/08/02 05:18:01;;;;;;;5.70;3.13;;;;;;;;;;4981685;28;20038;-43
2023/08/02 05:20:31;;;;;;;4.38;3.28;;;;;;;;;;4997150;28;20054;-50
2023/08/02 05:22:56;;;;;;;5.85;3.50;;;;;;;;;;4996104;28;20129;-44
2023/08/02 05:25:21;;;;;;;5.68;3.50;;;;;;;;;;4994421;28;20088;-46
2023/08/02 05:27:47;;;;;;;6.05;3.38;;;;;;;;;;4979312;28;20207;-45
2023/08/02 05:30:12;;;;;;;3.95;3.55;;;;;;;;;;4989102;28;20393;-46
2023/08/02 05:32:38;;;;;;;7.55;3.58;;;;;;;;;;4987733;28;20397;-48
2023/08/02 05:35:04;;;;;;;5.53;4.13;;;;;;;;;;4979642;28;20589;-47
2023/08/02 05:37:29;;;;;;;8.18;4.10;;;;;;;;;;4979944;28;20069;-50
2023/08/02 05:39:55;;;;;;;5.53;3.70;;;;;;;;;;4992723;28;20380;-47
2023/08/02 05:42:20;;;;;;;7.63;3.58;;;;;;;;;;4985052;28;20043;-44
2023/08/02 05:44:46;;;;;;;5.53;3.60;;;;;;;;;;4987447;28;20674;-46
2023/08/02 05:47:11;;;;;;;9.80;4.22;;;;;;;;;;4995393;28;20080;-48
2023/08/02 05:49:37;;;;;;;6.97;3.97;;;;;;;;;;4994750;28;20034;-47
2023/08/02 05:52:02;;;;;;;9.32;4.60;;;;;;;;;;4994640;28;20519;-45
2023/08/02 05:54:28;;;;;;;12.30;4.13;;;;;;;;;;4993287;28;20057;-47
2023/08/02 05:56:53;;;;;;;8.07;3.97;;;;;;;;;;4980298;28;20547;-45
2023/08/02 05:59:18;;;;;;;8.25;4.10;;;;;;;;;;4996709;28;20381;-45
2023/08/02 06:01:44;;;;;;;7.05;4.45;;;;;;;;;;4995573;28;20030;-44
2023/08/02 06:04:09;;;;;;;9.05;4.53;;;;;;;;;;4995137;28;20046;-44
2023/08/02 06:06:34;;;;;;;6.80;4.35;;;;;;;;;;4990654;28;20037;-46
2023/08/02 06:09:00;;;;;;;8.88;4.25;;;;;;;;;;4991518;28;20069;-48
2023/08/02 06:11:25;;;;;;;13.10;4.13;;;;;;;;;;4989450;28;20503;-45
2023/08/02 06:13:51;;;;;;;8.70;4.18;;;;;;;;;;4977771;28;20073;-48
2023/08/02 06:16:16;;;;;;;10.23;4.15;;;;;;;;;;4979785;28;20814;-47
2023/08/02 06:18:42;;;;;;;8.00;3.65;;;;;;;;;;4989533;28;20264;-45
2023/08/02 06:21:07;;;;;;;13.05;4.47;;;;;;;;;;4994089;28;20153;-43
2023/08/02 06:23:32;;;;;;;4.80;4.00;;;;;;;;;;4981616;28;20169;-44
2023/08/02 06:25:58;;;;;;;9.25;3.72;;;;;;;;;;4990916;28;20027;-45
2023/08/02 06:28:23;;;;;;;8.77;4.20;;;;;;;;;;4996102;28;20034;-44
2023/08/02 06:30:49;;;;;;;12.82;4.15;;;;;;;;;;4999028;28;20555;-44
2023/08/02 06:33:14;;;;;;;7.30;4.05;;;;;;;;;;4997142;28;20130;-45
2023/08/02 06:35:39;;;;;;;11.02;4.13;;;;;;;;;;4997948;28;20050;-43
2023/08/02 06:38:05;;;;;;;6.03;4.18;;;;;;;;;;5002255;28;20050;-43
2023/08/02 06:40:30;;;;;;;10.48;4.18;;;;;;;;;;5003057;28;20030;-44
2023/08/02 06:42:56;;;;;;;6.80;4.53;;;;;;;;;;5012291;28;20050;-45
2023/08/02 06:45:21;;;;;;;7.03;4.03;;;;;;;;;;4996813;28;20045;-44
2023/08/02 06:47:46;;;;;;;11.77;4.50;;;;;;;;;;4987029;28;20046;-45
2023/08/02 06:50:12;;;;;;;10.55;4.60;;;;;;;;;;4999521;28;20104;-45
2023/08/02 06:52:37;;;;;;;8.88;4.38;;;;;;;;;;4999078;28;20038;-46
2023/08/02 06:55:03;;;;;;;9.93;4.47;;;;;;;;;;4999617;28;20022;-46
2023/08/02 06:57:31;;;;;;;7.25;4.20;;;;;;;;;;4996630;28;20041;-45
2023/08/02 06:59:56;;;;;;;14.02;4.55;;;;;;;;;;4999532;28;20036;-44
2023/08/02 07:02:22;;;;;;;9.13;4.70;;;;;;;;;;4997178;28;20050;-45
2023/08/02 07:04:47;;;;;;;9.40;4.32;;;;;;;;;;4999320;28;20088;-45
2023/08/02 07:07:13;;;;;;;11.68;4.18;;;;;;;;;;4992173;28;20031;-45
2023/08/02 07:09:38;;;;;;;8.45;4.60;;;;;;;;;;4996639;28;20062;-44
2023/08/02 07:12:04;;;;;;;5.68;4.05;;;;;;;;;;4981462;28;20492;-46
2023/08/02 07:14:29;;;;;;;10.02;4.43;;;;;;;;;;4991281;28;20027;-45
2023/08/02 07:16:55;;;;;;;7.43;3.97;;;;;;;;;;4995783;28;20022;-44
2023/08/02 07:19:20;;;;;;;6.90;4.18;;;;;;;;;;4999038;28;20216;-44
2023/08/02 07:21:45;;;;;;;7.80;4.15;;;;;;;;;;4988412;28;20057;-47
2023/08/02 07:24:11;;;;;;;7.72;3.95;;;;;;;;;;4996658;28;20038;-43
2023/08/02 07:26:36;;;;;;;12.05;3.90;;;;;;;;;;4992466;28;20037;-44
2023/08/02 07:29:02;;;;;;;7.03;4.32;;;;;;;;;;4997991;28;20086;-46
2023/08/02 07:31:27;;;;;;;8.00;3.80;;;;;;;;;;4994652;28;20089;-46
2023/08/02 07:33:53;;;;;;;4.18;3.40;;;;;;;;;;4955366;28;20034;-46
2023/08/02 07:36:19;;;;;;;4.63;3.60;;;;;;;;;;4991337;28;20057;-48
2023/08/02 07:38:46;;;;;;;5.55;3.60;;;;;;;;;;4982161;28;20113;-51
2023/08/02 07:41:11;;;;;;;5.07;3.83;;;;;;;;;;4987303;28;20362;-50
2023/08/02 07:43:37;;;;;;;6.70;3.58;;;;;;;;;;4988310;28;20039;-46
2023/08/02 07:46:02;;;;;;;12.73;3.88;;;;;;;;;;5011353;28;20030;-47
2023/08/02 07:48:28;;;;;;;6.07;3.90;;;;;;;;;;4997802;28;20217;-49
2023/08/02 07:50:53;;;;;;;5.32;3.67;;;;;;;;;;4979368;28;20026;-49
2023/08/02 07:53:19;;;;;;;5.03;3.53;;;;;;;;;;4998459;28;20042;-45
2023/08/02 07:55:44;;;;;;;7.43;3.47;;;;;;;;;;4992057;28;20488;-44
2023/08/02 07:58:10;;;;;;;6.68;3.85;;;;;;;;;;4981246;28;20444;-47
2023/08/02 08:00:35;;;;;;;12.52;4.13;;;;;;;;;;4994902;28;20106;-50
2023/08/02 08:03:03;;;;;;;5.13;3.70;;;;;;;;;;4981128;28;20793;-51
2023/08/02 08:05:29;;;;;;;7.22;3.22;;;;;;;;;;4989452;28;20037;-47
2023/08/02 08:07:55;;;;;;;3.90;3.45;;;;;;;;;;4997968;28;20120;-44
2023/08/02 08:10:21;;;;;;;8.55;3.67;;;;;;;;;;4980981;28;20065;-47
2023/08/02 08:12:46;;;;;;;4.97;3.63;;;;;;;;;;4997108;28;20125;-48
2023/08/02 08:15:11;;;;;;;6.25;4.00;;;;;;;;;;4998327;28;20062;-45
2023/08/02 08:17:37;;;;;;;9.38;4.18;;;;;;;;;;4997914;28;20090;-47
2023/08/02 08:20:06;;;;;;;6.05;3.80;;;;;;;;;;4988051;28;20027;-46
2023/08/02 08:22:31;;;;;;;9.57;3.83;;;;;;;;;;4993148;28;20044;-45
2023/08/02 08:24:57;;;;;;;6.32;3.85;;;;;;;;;;4994627;28;20484;-46
2023/08/02 08:27:22;;;;;;;6.47;4.07;;;;;;;;;;4996875;28;20038;-44
2023/08/02 08:29:48;;;;;;;5.55;4.00;;;;;;;;;;4997353;28;20033;-45
2023/08/02 08:32:13;;;;;;;5.22;3.83;;;;;;;;;;4992199;28;20054;-44
2023/08/02 08:34:39;;;;;;;5.70;3.90;;;;;;;;;;4993541;28;20022;-45
2023/08/02 08:37:04;;;;;;;7.25;4.13;;;;;;;;;;4995659;28;20054;-48
2023/08/02 08:39:30;;;;;;;6.28;3.92;;;;;;;;;;4996730;28;20034;-49
2023/08/02 08:41:58;;;;;;;6.47;4.10;;;;;;;;;;4983256;28;20510;-48
2023/08/02 08:44:24;;;;;;;6.90;4.00;;;;;;;;;;4997177;28;20497;-46
2023/08/02 08:46:50;;;;;;;9.75;3.75;;;;;;;;;;4974060;28;20053;-46
2023/08/02 08:49:15;;;;;;;7.05;3.85;;;;;;;;;;4997326;28;20044;-47
2023/08/02 08:51:45;;;;;;;7.22;4.15;;;;;;;;;;4996936;28;20555;-47
2023/08/02 08:54:23;;;;;;;5.60;4.07;;;;;;;;;;4993472;28;20397;-46
2023/08/02 08:56:49;;;;;;;5.85;3.60;;;;;;;;;;4996153;28;20061;-45
2023/08/02 08:59:15;;;;;;;7.00;3.80;;;;;;;;;;4975555;28;20073;-46
2023/08/02 09:01:41;;;;;;;7.80;3.90;;;;;;;;;;4993152;28;20065;-45
2023/08/02 09:04:06;;;;;;;4.88;3.38;;;;;;;;;;4982134;28;20070;-47
2023/08/02 09:06:34;;;;;;;4.78;3.60;;;;;;;;;;4978288;28;20030;-49
2023/08/02 09:08:59;;;;;;;4.32;3.70;;;;;;;;;;4988962;28;20035;-44
2023/08/02 09:11:25;;;;;;;4.85;3.70;;;;;;;;;;4987769;28;20026;-51
2023/08/02 09:14:11;;;;;;;5.68;3.42;;;;;;;;;;4992433;28;20050;-47
2023/08/02 09:16:53;;;;;;;9.93;3.75;;;;;;;;;;4983368;28;20512;-46
2023/08/02 09:19:23;;;;;;;7.47;3.67;;;;;;;;;;4987058;28;20050;-47
2023/08/02 09:22:14;;;;;;;3.92;3.50;;;;;;;;;;4995460;28;20109;-47
2023/08/02 09:24:41;;;;;;;4.47;3.78;;;;;;;;;;4988291;28;20045;-50
2023/08/02 09:27:13;;;;;;;8.48;3.85;;;;;;;;;;4995229;28;20117;-45
2023/08/02 09:29:50;;;;;;;4.22;3.60;;;;;;;;;;4996144;28;20034;-45
2023/08/02 09:32:18;;;;;;;3.72;3.42;;;;;;;;;;4994355;28;20026;-50
2023/08/02 09:34:52;;;;;;;7.15;3.80;;;;;;;;;;4997105;28;20026;-49
2023/08/02 09:37:29;;;;;;;5.97;4.18;;;;;;;;;;4993640;28;20678;-50
2023/08/02 09:39:55;;;;;;;3.70;3.38;;;;;;;;;;4989684;28;20032;-52
2023/08/02 09:42:25;;;;;;;3.47;3.17;;;;;;;;;;4996058;28;20037;-46
2023/08/02 09:45:03;;;;;;;5.65;3.60;;;;;;;;;;4993098;28;20481;-48
2023/08/02 09:47:29;;;;;;;4.63;3.50;;;;;;;;;;5007985;28;20037;-46
2023/08/02 09:50:11;;;;;;;7.38;3.42;;;;;;;;;;4994971;28;20027;-45
2023/08/02 09:52:38;;;;;;;5.20;3.13;;;;;;;;;;4988156;28;20452;-45
2023/08/02 09:55:05;;;;;;;5.03;3.25;;;;;;;;;;4983909;28;20033;-45
2023/08/02 09:57:31;;;;;;;4.68;3.33;;;;;;;;;;4985649;28;20034;-46
2023/08/02 10:00:04;;;;;;;9.05;3.60;;;;;;;;;;4996516;28;20045;-48
2023/08/02 10:02:30;;;;;;;3.92;3.47;;;;;;;;;;4995526;28;20042;-47
2023/08/02 10:04:57;;;;;;;3.95;3.20;;;;;;;;;;4984535;28;20026;-49
2023/08/02 10:07:48;;;;;;;4.93;3.10;;;;;;;;;;4994471;28;20532;-45
2023/08/02 10:10:26;;;;;;;8.02;4.20;;;;;;;;;;4988269;28;20042;-45
2023/08/02 10:12:54;;;;;;;5.05;3.20;;;;;;;;;;4993072;28;20044;-47
2023/08/02 10:15:20;;;;;;;7.03;3.50;;;;;;;;;;4994811;28;20022;-46
2023/08/02 10:17:47;;;;;;;4.05;3.00;;;;;;;;;;4993294;28;20921;-47
2023/08/02 10:20:13;;;;;;;4.90;3.30;;;;;;;;;;4992944;28;20086;-48
2023/08/02 10:22:40;;;;;;;4.80;3.03;;;;;;;;;;4989692;28;20046;-48
2023/08/02 10:25:06;;;;;;;4.65;3.60;;;;;;;;;;4992765;28;20041;-51
2023/08/02 10:27:32;;;;;;;6.25;3.42;;;;;;;;;;4985749;28;20343;-48
2023/08/02 10:29:59;;;;;;;3.90;3.35;;;;;;;;;;4982843;28;20038;-45
2023/08/02 10:32:25;;;;;;;3.60;3.30;;;;;;;;;;4991669;28;20527;-45
2023/08/02 10:34:51;;;;;;;4.30;3.40;;;;;;;;;;4959822;28;20022;-48
2023/08/02 10:37:19;;;;;;;9.10;3.80;;;;;;;;;;4984958;28;20038;-45
2023/08/02 10:39:47;;;;;;;4.32;3.90;;;;;;;;;;4995389;28;20084;-49
2023/08/02 10:42:29;;;;;;;4.97;3.40;;;;;;;;;;4989230;28;20053;-46
2023/08/02 10:44:54;;;;;;;5.75;3.67;;;;;;;;;;4976617;28;20062;-49
2023/08/02 10:47:46;;;;;;;5.68;3.90;;;;;;;;;;4991298;28;20070;-50
2023/08/02 10:50:45;;;;;;;3.53;3.20;;;;;;;;;;4983788;28;20038;-44
2023/08/02 10:53:11;;;;;;;4.68;3.30;;;;;;;;;;4985972;28;20050;-49
2023/08/02 10:56:04;;;;;;;4.75;3.78;;;;;;;;;;4991177;28;20030;-49
2023/08/02 10:58:45;;;;;;;7.35;3.65;;;;;;;;;;4991417;28;20047;-48
2023/08/02 11:01:11;;;;;;;4.43;3.70;;;;;;;;;;4994993;28;20034;-49
2023/08/02 11:03:37;;;;;;;4.03;3.60;;;;;;;;;;4998466;28;20049;-51
2023/08/02 11:06:03;;;;;;;5.43;3.72;;;;;;;;;;4999790;28;20085;-44
2023/08/02 11:08:28;;;;;;;8.73;3.80;;;;;;;;;;4997850;28;20477;-46
2023/08/02 11:10:55;;;;;;;6.00;3.80;;;;;;;;;;4991636;28;20054;-48
2023/08/02 11:13:22;;;;;;;7.85;3.78;;;;;;;;;;4983139;28;20065;-48
2023/08/02 11:16:09;;;;;;;5.57;4.20;;;;;;;;;;4998472;28;20049;-51
2023/08/02 11:18:34;;;;;;;4.18;3.25;;;;;;;;;;4997968;28;20074;-48
2023/08/02 11:21:11;;;;;;;12.07;3.67;;;;;;;;;;4998925;28;20026;-48
2023/08/02 11:23:37;;;;;;;7.43;3.58;;;;;;;;;;4990827;28;20065;-45
2023/08/02 11:26:10;;;;;;;6.72;4.10;;;;;;;;;;4997440;28;20053;-49
2023/08/02 11:28:40;;;;;;;3.70;3.40;;;;;;;;;;4996232;28;20042;-46
2023/08/02 11:31:06;;;;;;;4.57;3.70;;;;;;;;;;4999012;28;20026;-45
2023/08/02 11:33:32;;;;;;;4.00;3.53;;;;;;;;;;4998990;28;20060;-45
2023/08/02 11:35:57;;;;;;;9.98;3.95;;;;;;;;;;4995734;28;20097;-46
2023/08/02 11:38:25;;;;;;;4.15;3.50;;;;;;;;;;4998682;28;20042;-48
2023/08/02 11:40:51;;;;;;;4.20;3.80;;;;;;;;;;4966612;28;20129;-47
2023/08/02 11:43:16;;;;;;;7.85;3.70;;;;;;;;;;4991207;28;20065;-45
2023/08/02 11:45:42;;;;;;;6.55;3.50;;;;;;;;;;4987852;28;20392;-45
2023/08/02 11:48:24;;;;;;;5.72;3.47;;;;;;;;;;4967010;28;20076;-47
2023/08/02 11:50:49;;;;;;;3.85;3.38;;;;;;;;;;4992051;28;20038;-49
2023/08/02 11:53:15;;;;;;;4.03;3.50;;;;;;;;;;4995738;28;20058;-44
2023/08/02 11:55:41;;;;;;;4.00;3.53;;;;;;;;;;4997588;28;20164;-46
2023/08/02 11:58:08;;;;;;;7.45;3.05;;;;;;;;;;4985776;28;20125;-46
2023/08/02 12:00:34;;;;;;;4.05;2.97;;;;;;;;;;4996167;28;20041;-45
2023/08/02 12:03:14;;;;;;;8.35;2.92;;;;;;;;;;4996816;28;20062;-47
2023/08/02 12:05:41;;;;;;;7.13;2.85;;;;;;;;;;4998355;28;20028;-47
2023/08/02 12:08:14;;;;;;;6.38;3.13;;;;;;;;;;4995980;28;20043;-45
2023/08/02 12:10:41;;;;;;;4.55;2.80;;;;;;;;;;4991884;28;20035;-46
2023/08/02 12:13:16;;;;;;;5.40;3.05;;;;;;;;;;4996521;28;20129;-46
2023/08/02 12:16:06;;;;;;;3.67;2.83;;;;;;;;;;4996201;28;20081;-46
2023/08/02 12:18:31;;;;;;;5.05;3.22;;;;;;;;;;4998369;28;20412;-46
2023/08/02 12:20:57;;;;;;;3.10;2.90;;;;;;;;;;4997269;28;20077;-47
2023/08/02 12:23:29;;;;;;;6.18;3.13;;;;;;;;;;4986751;28;20042;-50
2023/08/02 12:25:55;;;;;;;3.38;2.95;;;;;;;;;;4995634;28;20060;-48
2023/08/02 12:28:20;;;;;;;3.95;2.85;;;;;;;;;;4992573;28;20039;-45
2023/08/02 12:31:03;;;;;;;3.03;2.83;;;;;;;;;;5005703;28;20030;-46
2023/08/02 12:33:29;;;;;;;4.28;2.97;;;;;;;;;;4985463;28;20039;-45
2023/08/02 12:35:54;;;;;;;3.05;2.85;;;;;;;;;;4997559;28;20105;-46
2023/08/02 12:38:20;;;;;;;2.88;2.67;;;;;;;;;;4985774;28;20066;-45
2023/08/02 12:40:46;;;;;;;3.83;3.05;;;;;;;;;;4991964;28;20034;-46
2023/08/02 12:43:11;;;;;;;4.85;3.00;;;;;;;;;;4994631;28;20109;-46
2023/08/02 12:45:37;;;;;;;4.72;3.00;;;;;;;;;;4988723;28;20030;-45
2023/08/02 12:48:02;;;;;;;3.15;2.90;;;;;;;;;;5007340;28;20570;-48
2023/08/02 12:50:28;;;;;;;5.05;2.88;;;;;;;;;;4997799;28;20081;-45
2023/08/02 12:52:54;;;;;;;5.10;3.15;;;;;;;;;;4996046;28;20093;-45
2023/08/02 12:55:19;;;;;;;3.33;2.85;;;;;;;;;;4994289;28;20126;-46
2023/08/02 12:57:45;;;;;;;3.15;2.72;;;;;;;;;;4987188;28;20035;-46
2023/08/02 13:00:11;;;;;;;3.63;2.72;;;;;;;;;;4983902;28;20030;-51
2023/08/02 13:02:38;;;;;;;6.20;2.90;;;;;;;;;;4995517;28;20100;-45
2023/08/02 13:05:04;;;;;;;4.80;2.63;;;;;;;;;;4993759;28;20015;-45
2023/08/02 13:07:29;;;;;;;5.82;2.80;;;;;;;;;;4993265;28;20041;-46
2023/08/02 13:09:54;;;;;;;5.90;3.08;;;;;;;;;;4995491;28;20045;-45
2023/08/02 13:12:20;;;;;;;4.10;2.72;;;;;;;;;;4991993;28;20058;-45
2023/08/02 13:14:45;;;;;;;4.15;2.50;;;;;;;;;;4995658;28;20042;-50
2023/08/02 13:17:13;;;;;;;4.82;3.03;;;;;;;;;;4992459;28;20022;-45
2023/08/02 13:19:39;;;;;;;2.80;2.60;;;;;;;;;;4994365;28;20030;-47
2023/08/02 13:22:04;;;;;;;3.33;2.63;;;;;;;;;;4996409;28;20428;-45
2023/08/02 13:24:30;;;;;;;5.28;2.67;;;;;;;;;;4995950;28;20098;-45
2023/08/02 13:26:55;;;;;;;2.58;2.38;;;;;;;;;;4993826;28;20085;-46
2023/08/02 13:29:20;;;;;;;7.30;2.83;;;;;;;;;;4996814;28;20042;-46
2023/08/02 13:31:46;;;;;;;4.53;2.60;;;;;;;;;;4995818;28;20034;-45
2023/08/02 13:34:11;;;;;;;5.57;2.53;;;;;;;;;;4995421;28;20042;-48
2023/08/02 13:36:37;;;;;;;4.80;2.63;;;;;;;;;;4993378;28;20054;-46
2023/08/02 13:39:02;;;;;;;4.68;2.90;;;;;;;;;;4990399;28;20042;-46
2023/08/02 13:41:28;;;;;;;4.82;2.50;;;;;;;;;;4986554;28;20034;-45
2023/08/02 13:43:53;;;;;;;3.42;2.47;;;;;;;;;;4995113;28;20045;-45
2023/08/02 13:46:18;;;;;;;5.13;2.70;;;;;;;;;;4979249;28;20030;-46
2023/08/02 13:48:44;;;;;;;2.83;2.55;;;;;;;;;;4996145;28;20038;-45
2023/08/02 13:51:10;;;;;;;3.80;2.92;;;;;;;;;;4993018;28;20026;-46
2023/08/02 13:53:37;;;;;;;4.18;2.90;;;;;;;;;;4996230;28;20066;-45
2023/08/02 13:56:02;;;;;;;6.80;3.35;;;;;;;;;;4993018;28;20030;-46
2023/08/02 13:58:27;;;;;;;3.13;2.83;;;;;;;;;;4989399;28;20050;-47
2023/08/02 14:00:53;;;;;;;3.63;2.92;;;;;;;;;;4995369;28;20133;-47
2023/08/02 14:03:18;;;;;;;5.75;2.97;;;;;;;;;;4982336;28;20078;-46
2023/08/02 14:05:45;;;;;;;3.03;2.80;;;;;;;;;;4993246;28;20080;-45
2023/08/02 14:08:10;;;;;;;8.32;3.25;;;;;;;;;;4995092;28;20041;-48
2023/08/02 14:10:36;;;;;;;4.25;3.33;;;;;;;;;;4959452;28;20439;-44
2023/08/02 14:13:01;;;;;;;6.55;3.15;;;;;;;;;;4988647;28;20042;-46
2023/08/02 14:15:26;;;;;;;9.50;2.80;;;;;;;;;;4988774;28;20066;-46
2023/08/02 14:17:52;;;;;;;3.63;2.90;;;;;;;;;;4979947;28;20069;-48
2023/08/02 14:20:17;;;;;;;5.78;3.25;;;;;;;;;;4994447;28;20106;-44
2023/08/02 14:22:43;;;;;;;3.75;3.00;;;;;;;;;;4995698;28;20042;-45
2023/08/02 14:25:10;;;;;;;3.67;2.60;;;;;;;;;;4995858;28;20388;-44
2023/08/02 14:27:36;;;;;;;5.90;3.10;;;;;;;;;;4976183;28;20062;-47
2023/08/02 14:30:01;;;;;;;4.25;2.53;;;;;;;;;;4994764;28;20038;-49
2023/08/02 14:32:27;;;;;;;3.03;2.80;;;;;;;;;;4994141;28;20034;-47
2023/08/02 14:34:52;;;;;;;3.30;2.63;;;;;;;;;;4994716;28;20058;-45
2023/08/02 14:37:17;;;;;;;2.70;2.50;;;;;;;;;;4963763;28;20057;-47
2023/08/02 14:39:43;;;;;;;4.22;2.42;;;;;;;;;;4997361;28;20600;-50
2023/08/02 14:42:09;;;;;;;3.85;2.97;;;;;;;;;;4998110;28;20392;-47